Time;durP1;ratioP1;P1;durP2;ratioP2;P2;SDS_P1;SDS_P2;PMS_P1;PMS_P2;Temp;Humidity;BMP_temperature;BMP_pressure;BME280_temperature;BME280_humidity;BME280_pressure;Samples;Min_cycle;Max_cycle;Signal;HPM_P1;HPM_P2
2023/12/15 00:01:04;;;;;;;19.05;8.63;;;5.90;99.90;;;;;;5054721;28;20063;-90
2023/12/15 00:03:30;;;;;;;22.85;9.10;;;5.90;99.90;;;;;;5055461;28;20043;-89
2023/12/15 00:05:57;;;;;;;18.17;9.10;;;5.90;99.90;;;;;;5056000;28;20039;-90
2023/12/15 00:08:23;;;;;;;18.35;8.68;;;5.90;99.90;;;;;;5055527;28;20486;-90
2023/12/15 00:10:49;;;;;;;16.50;7.05;;;5.90;99.90;;;;;;5055378;28;20135;-90
2023/12/15 00:13:15;;;;;;;23.42;10.00;;;5.90;99.90;;;;;;5055198;28;20460;-90
2023/12/15 00:15:41;;;;;;;18.48;8.40;;;5.90;99.90;;;;;;5072127;28;20040;-90
2023/12/15 00:18:07;;;;;;;17.00;8.95;;;5.90;99.90;;;;;;5071939;28;20500;-90
2023/12/15 00:20:32;;;;;;;19.25;9.07;;;5.90;99.90;;;;;;5055629;28;20132;-90
2023/12/15 00:22:59;;;;;;;17.20;7.65;;;5.90;99.90;;;;;;5046985;28;20036;-90
2023/12/15 00:25:24;;;;;;;14.18;6.85;;;6.00;99.90;;;;;;5049816;28;20056;-90
2023/12/15 00:27:50;;;;;;;18.60;9.20;;;5.90;99.90;;;;;;5042550;28;20044;-90
2023/12/15 00:30:16;;;;;;;17.08;8.40;;;5.90;99.90;;;;;;5049238;28;20082;-90
2023/12/15 00:32:41;;;;;;;15.88;6.22;;;6.00;99.90;;;;;;5055097;28;20074;-90
2023/12/15 00:35:07;;;;;;;16.15;7.10;;;6.00;99.90;;;;;;5072044;28;20684;-90
2023/12/15 00:37:33;;;;;;;14.13;6.18;;;6.00;99.90;;;;;;5055043;28;20047;-89
2023/12/15 00:39:58;;;;;;;18.05;8.65;;;6.00;99.90;;;;;;5055426;28;20450;-89
2023/12/15 00:42:24;;;;;;;19.40;8.43;;;6.00;99.90;;;;;;5055074;28;20381;-89
2023/12/15 00:44:50;;;;;;;18.60;8.95;;;6.00;99.90;;;;;;5071411;28;20041;-89
2023/12/15 00:47:16;;;;;;;25.25;9.90;;;6.00;99.90;;;;;;5071621;28;20066;-89
2023/12/15 00:49:41;;;;;;;17.15;7.75;;;6.10;99.90;;;;;;5071490;28;20038;-89
2023/12/15 00:52:07;;;;;;;20.58;8.15;;;6.10;99.90;;;;;;5071142;28;20055;-89
2023/12/15 00:54:33;;;;;;;17.73;7.72;;;6.10;99.90;;;;;;5054791;28;20116;-89
2023/12/15 00:56:59;;;;;;;17.63;8.82;;;6.10;99.90;;;;;;5071753;28;20052;-89
2023/12/15 00:59:25;;;;;;;13.73;5.95;;;6.10;99.90;;;;;;5054662;28;20434;-90
2023/12/15 01:01:50;;;;;;;17.13;8.65;;;6.10;99.90;;;;;;5054837;28;20047;-89
2023/12/15 01:04:16;;;;;;;15.38;6.85;;;6.10;99.90;;;;;;5054784;28;20045;-89
2023/12/15 01:06:42;;;;;;;16.20;7.75;;;6.10;99.90;;;;;;5071200;28;20443;-89
2023/12/15 01:09:07;;;;;;;20.80;9.98;;;6.20;99.90;;;;;;5054723;28;20037;-89
2023/12/15 01:11:33;;;;;;;14.57;7.03;;;6.20;99.90;;;;;;5053906;28;20041;-90
2023/12/15 01:13:59;;;;;;;18.13;9.30;;;6.20;99.90;;;;;;5054424;28;20025;-89
2023/12/15 01:16:24;;;;;;;16.67;7.47;;;6.20;99.90;;;;;;5053907;28;20507;-89
2023/12/15 01:18:50;;;;;;;16.08;7.22;;;6.20;99.90;;;;;;5054691;28;20045;-89
2023/12/15 01:21:15;;;;;;;13.23;6.43;;;6.20;99.90;;;;;;5070792;28;20040;-90
2023/12/15 01:23:41;;;;;;;14.85;7.05;;;6.20;99.90;;;;;;5054133;28;20120;-89
2023/12/15 01:26:09;;;;;;;23.00;8.43;;;6.30;99.90;;;;;;5054339;28;20052;-90
2023/12/15 01:28:35;;;;;;;15.45;7.93;;;6.30;99.90;;;;;;5054095;28;20043;-90
2023/12/15 01:31:01;;;;;;;15.45;7.47;;;6.30;99.90;;;;;;5053764;28;20119;-90
2023/12/15 01:33:27;;;;;;;17.63;8.68;;;6.30;99.90;;;;;;5070720;28;20079;-90
2023/12/15 01:35:53;;;;;;;22.30;7.97;;;6.30;99.90;;;;;;5053902;28;20049;-90
2023/12/15 01:38:19;;;;;;;21.75;9.07;;;6.30;99.90;;;;;;5070910;28;20132;-90
2023/12/15 01:40:44;;;;;;;17.40;7.68;;;6.40;99.90;;;;;;5070376;28;20111;-90
2023/12/15 01:43:10;;;;;;;15.15;7.43;;;6.40;99.90;;;;;;5053974;28;20028;-90
2023/12/15 01:45:36;;;;;;;17.13;6.95;;;6.30;99.90;;;;;;5054088;28;20040;-90
2023/12/15 01:48:02;;;;;;;14.95;7.75;;;6.30;99.90;;;;;;5070834;28;20040;-90
2023/12/15 01:50:28;;;;;;;14.55;6.43;;;6.40;99.90;;;;;;5070859;28;20080;-90
2023/12/15 01:52:53;;;;;;;12.05;6.55;;;6.40;99.90;;;;;;5072941;28;20082;-90
2023/12/15 01:55:19;;;;;;;19.40;8.55;;;6.40;99.90;;;;;;5063006;28;20028;-90
2023/12/15 01:57:45;;;;;;;25.83;8.82;;;6.40;99.90;;;;;;5069995;28;20473;-90
2023/12/15 02:00:11;;;;;;;14.13;7.10;;;6.40;99.90;;;;;;5069975;28;20039;-90
2023/12/15 02:02:36;;;;;;;15.57;8.95;;;6.40;99.90;;;;;;5053462;28;20448;-90
2023/12/15 02:05:02;;;;;;;18.45;8.43;;;6.50;99.90;;;;;;5069923;28;20078;-90
2023/12/15 02:07:28;;;;;;;17.92;9.18;;;6.50;99.90;;;;;;5053443;28;20044;-90
2023/12/15 02:09:55;;;;;;;20.73;10.10;;;6.50;99.90;;;;;;5071124;28;20045;-90
2023/12/15 02:12:21;;;;;;;16.33;8.52;;;6.50;99.90;;;;;;5053217;28;20047;-90
2023/12/15 02:14:46;;;;;;;17.55;8.68;;;6.50;99.90;;;;;;5069465;28;20161;-90
2023/12/15 02:17:12;;;;;;;25.02;10.90;;;6.50;99.90;;;;;;5070979;28;20040;-90
2023/12/15 02:19:38;;;;;;;20.75;10.60;;;6.60;99.90;;;;;;5070369;28;20055;-90
2023/12/15 02:22:04;;;;;;;22.63;10.25;;;6.50;99.90;;;;;;5070323;28;20750;-90
2023/12/15 02:24:29;;;;;;;19.20;7.85;;;6.60;99.90;;;;;;5070546;28;20047;-90
2023/12/15 02:26:56;;;;;;;18.13;9.13;;;6.50;99.90;;;;;;5070583;28;20047;-90
2023/12/15 02:29:22;;;;;;;15.95;7.32;;;6.60;99.90;;;;;;5052843;28;20046;-90
2023/12/15 02:31:47;;;;;;;23.83;10.80;;;6.60;99.90;;;;;;5078336;28;20411;-89
2023/12/15 02:34:13;;;;;;;17.35;9.50;;;6.60;99.90;;;;;;5077512;28;20468;-90
2023/12/15 02:36:39;;;;;;;19.92;10.50;;;6.60;99.90;;;;;;5061451;28;20037;-90
2023/12/15 02:39:04;;;;;;;18.42;10.10;;;6.60;99.90;;;;;;5071016;28;20046;-90
2023/12/15 02:41:31;;;;;;;19.20;11.05;;;6.60;99.90;;;;;;5064130;28;20558;-89
2023/12/15 02:43:56;;;;;;;23.10;9.95;;;6.60;99.90;;;;;;5063262;28;20038;-90
2023/12/15 02:46:22;;;;;;;17.45;8.45;;;6.70;99.90;;;;;;5057690;28;20037;-90
2023/12/15 02:48:47;;;;;;;15.75;8.32;;;6.70;99.90;;;;;;5059583;28;20499;-90
2023/12/15 02:51:27;;;;;;;18.42;7.93;;;6.70;99.90;;;;;;5071080;28;20074;-90
2023/12/15 02:53:53;;;;;;;20.73;10.82;;;6.70;99.90;;;;;;5070852;28;20037;-90
2023/12/15 02:56:18;;;;;;;19.10;9.23;;;6.80;99.90;;;;;;5069668;28;20044;-90
2023/12/15 02:58:44;;;;;;;19.20;9.52;;;6.70;99.90;;;;;;5070762;28;20048;-90
2023/12/15 03:01:09;;;;;;;14.77;7.30;;;6.70;99.90;;;;;;5070754;28;20063;-90
2023/12/15 03:03:36;;;;;;;18.40;9.50;;;6.80;99.90;;;;;;5070569;28;20040;-89
2023/12/15 03:06:02;;;;;;;17.88;8.20;;;6.80;99.90;;;;;;5070718;28;20047;-90
2023/12/15 03:08:28;;;;;;;20.20;8.63;;;6.80;99.90;;;;;;5070753;28;20040;-89
2023/12/15 03:10:57;;;;;;;23.92;10.60;;;6.80;99.90;;;;;;5052418;28;20534;-89
2023/12/15 03:13:30;;;;;;;20.65;9.90;;;6.80;99.90;;;;;;5069498;28;20052;-89
2023/12/15 03:16:06;;;;;;;18.58;9.45;;;6.80;99.90;;;;;;5069259;28;20036;-89
2023/12/15 03:18:32;;;;;;;31.05;13.45;;;6.80;99.90;;;;;;5070541;28;20036;-89
2023/12/15 03:20:59;;;;;;;20.70;10.63;;;6.80;99.90;;;;;;5068555;28;20097;-89
2023/12/15 03:23:25;;;;;;;24.67;11.35;;;6.90;99.90;;;;;;5069772;28;20044;-90
2023/12/15 03:25:50;;;;;;;27.45;12.70;;;6.90;99.90;;;;;;5052450;28;20446;-89
2023/12/15 03:28:16;;;;;;;29.77;13.35;;;6.90;99.90;;;;;;5070356;28;20043;-89
2023/12/15 03:30:42;;;;;;;18.20;8.77;;;6.90;99.90;;;;;;5069947;28;20068;-89
2023/12/15 03:33:07;;;;;;;28.65;12.25;;;7.00;99.90;;;;;;5070159;28;20043;-90
2023/12/15 03:35:33;;;;;;;28.60;14.07;;;7.00;99.90;;;;;;5072745;28;20047;-90
2023/12/15 03:37:58;;;;;;;25.02;10.10;;;7.00;99.90;;;;;;5074274;28;20032;-90
2023/12/15 03:40:24;;;;;;;22.30;10.70;;;7.00;99.90;;;;;;5074013;28;20158;-89
2023/12/15 03:42:50;;;;;;;28.00;9.18;;;7.00;99.90;;;;;;5072999;28;20036;-89
2023/12/15 03:45:15;;;;;;;30.30;11.82;;;7.00;99.90;;;;;;5072888;28;20580;-90
2023/12/15 03:47:41;;;;;;;30.55;12.75;;;7.00;99.90;;;;;;5072931;28;20519;-90
2023/12/15 03:50:07;;;;;;;26.60;12.05;;;7.00;99.90;;;;;;5073918;28;20404;-90
2023/12/15 03:52:33;;;;;;;25.45;11.65;;;7.10;99.90;;;;;;5073797;28;20044;-89
2023/12/15 03:54:58;;;;;;;19.33;8.48;;;7.00;99.90;;;;;;5073720;28;20040;-91
2023/12/15 03:57:24;;;;;;;24.05;10.60;;;7.10;99.90;;;;;;5073934;28;20470;-89
2023/12/15 03:59:50;;;;;;;33.55;13.30;;;7.10;99.90;;;;;;5072310;28;20037;-89
2023/12/15 04:02:15;;;;;;;27.05;11.98;;;7.10;99.90;;;;;;5073985;28;20039;-89
2023/12/15 04:04:44;;;;;;;35.17;14.77;;;7.10;99.90;;;;;;5072734;28;20086;-89
2023/12/15 04:07:10;;;;;;;31.83;14.00;;;7.10;99.90;;;;;;5073869;28;20032;-90
2023/12/15 04:09:36;;;;;;;36.38;13.73;;;7.10;99.90;;;;;;5073954;28;20557;-90
2023/12/15 04:12:03;;;;;;;24.65;10.55;;;7.10;99.90;;;;;;5074566;28;20032;-89
2023/12/15 04:14:29;;;;;;;19.25;9.13;;;7.20;99.90;;;;;;5061508;28;20041;-90
2023/12/15 04:16:55;;;;;;;23.77;10.27;;;7.10;99.90;;;;;;5062689;28;20039;-90
2023/12/15 04:19:20;;;;;;;28.55;13.50;;;7.20;99.90;;;;;;5072492;28;20057;-89
2023/12/15 04:21:46;;;;;;;35.67;12.68;;;7.20;99.90;;;;;;5073335;28;20036;-89
2023/12/15 04:24:12;;;;;;;37.78;14.45;;;7.20;99.90;;;;;;5071810;28;20051;-89
2023/12/15 04:26:37;;;;;;;34.33;15.43;;;7.20;99.90;;;;;;5071903;28;20128;-90
2023/12/15 04:29:03;;;;;;;34.85;15.35;;;7.20;99.90;;;;;;5071835;28;20055;-90
2023/12/15 04:31:29;;;;;;;30.30;12.70;;;7.20;99.90;;;;;;5071713;28;20040;-90
2023/12/15 04:33:54;;;;;;;30.92;11.90;;;7.20;99.90;;;;;;5073203;28;20044;-89
2023/12/15 04:36:20;;;;;;;27.58;12.90;;;7.20;99.90;;;;;;5055251;28;20041;-90
2023/12/15 04:38:46;;;;;;;28.23;12.30;;;7.20;99.90;;;;;;5072505;28;20037;-90
2023/12/15 04:41:25;;;;;;;24.60;12.25;;;7.20;99.90;;;;;;5072508;28;20044;-90
2023/12/15 04:43:51;;;;;;;26.73;11.52;;;7.20;99.90;;;;;;5073067;28;20089;-90
2023/12/15 04:46:28;;;;;;;30.48;14.48;;;7.20;99.90;;;;;;5071943;28;20036;-90
2023/12/15 04:48:56;;;;;;;28.17;13.15;;;7.30;99.90;;;;;;5072663;28;20093;-90
2023/12/15 04:51:22;;;;;;;28.05;12.40;;;7.30;99.90;;;;;;5071749;28;20055;-90
2023/12/15 04:53:48;;;;;;;22.70;10.45;;;7.20;99.90;;;;;;5072429;28;20033;-90
2023/12/15 04:56:14;;;;;;;37.72;16.27;;;7.30;99.90;;;;;;5072603;28;20079;-90
2023/12/15 04:58:41;;;;;;;32.78;13.95;;;7.30;99.90;;;;;;5071491;28;20165;-90
2023/12/15 05:01:10;;;;;;;33.08;16.13;;;7.30;99.90;;;;;;5071412;28;20047;-90
2023/12/15 05:03:37;;;;;;;26.30;11.65;;;7.30;99.90;;;;;;5071270;28;20438;-90
2023/12/15 05:06:03;;;;;;;26.05;11.70;;;7.30;99.90;;;;;;5064279;28;20492;-90
2023/12/15 05:08:28;;;;;;;40.92;11.43;;;7.30;99.90;;;;;;5072084;28;20044;-90
2023/12/15 05:10:54;;;;;;;21.17;9.10;;;7.30;99.90;;;;;;5070760;28;20504;-91
2023/12/15 05:13:20;;;;;;;16.20;8.30;;;7.30;99.90;;;;;;5072535;28;20047;-91
2023/12/15 05:15:45;;;;;;;19.60;7.88;;;7.40;99.90;;;;;;5053997;28;20051;-90
2023/12/15 05:18:11;;;;;;;26.98;11.23;;;7.30;99.90;;;;;;5071660;28;20445;-90
2023/12/15 05:20:38;;;;;;;30.35;13.63;;;7.40;99.90;;;;;;5071969;28;20079;-90
2023/12/15 05:23:04;;;;;;;33.35;12.20;;;7.40;99.90;;;;;;5070587;28;20044;-89
2023/12/15 05:25:30;;;;;;;33.00;13.40;;;7.40;99.90;;;;;;5071940;28;20124;-90
2023/12/15 05:27:56;;;;;;;30.25;13.27;;;7.40;99.90;;;;;;5053790;28;20083;-89
2023/12/15 05:30:21;;;;;;;25.63;10.45;;;7.40;99.90;;;;;;5070680;28;20072;-90
2023/12/15 05:32:47;;;;;;;20.02;9.82;;;7.40;99.90;;;;;;5071788;28;20388;-89
2023/12/15 05:35:13;;;;;;;36.05;15.00;;;7.40;99.90;;;;;;5072134;28;20044;-90
2023/12/15 05:37:38;;;;;;;25.83;11.48;;;7.40;99.90;;;;;;5071827;28;20043;-89
2023/12/15 05:40:04;;;;;;;30.45;11.88;;;7.40;99.90;;;;;;5072011;28;20089;-90
2023/12/15 05:42:30;;;;;;;31.67;13.52;;;7.40;99.90;;;;;;5070813;28;20115;-90
2023/12/15 05:44:56;;;;;;;32.10;13.55;;;7.40;99.90;;;;;;5071492;28;20123;-89
2023/12/15 05:47:21;;;;;;;35.15;14.63;;;7.40;99.90;;;;;;5053550;28;20045;-90
2023/12/15 05:49:47;;;;;;;37.25;14.32;;;7.40;99.90;;;;;;5070377;28;20044;-89
2023/12/15 05:52:14;;;;;;;27.02;13.15;;;7.40;99.90;;;;;;5071348;28;20040;-90
2023/12/15 05:54:40;;;;;;;26.02;12.32;;;7.40;99.90;;;;;;5053476;28;20125;-90
2023/12/15 05:57:07;;;;;;;37.15;15.02;;;7.40;99.90;;;;;;5070924;28;20043;-90
2023/12/15 05:59:32;;;;;;;40.38;15.38;;;7.50;99.90;;;;;;5070066;28;20055;-90
2023/12/15 06:01:58;;;;;;;33.13;12.60;;;7.40;99.90;;;;;;5071475;28;20037;-90
2023/12/15 06:04:24;;;;;;;39.20;13.90;;;7.40;99.90;;;;;;5053586;28;20048;-90
2023/12/15 06:06:50;;;;;;;37.88;13.88;;;7.40;99.90;;;;;;5070899;28;20082;-89
2023/12/15 06:09:16;;;;;;;33.80;14.50;;;7.40;99.90;;;;;;5070746;28;20040;-90
2023/12/15 06:11:42;;;;;;;40.10;14.95;;;7.40;99.90;;;;;;5070650;28;20036;-90
2023/12/15 06:14:08;;;;;;;40.70;15.73;;;7.40;99.90;;;;;;5070893;28;20039;-90
2023/12/15 06:16:35;;;;;;;35.25;15.32;;;7.40;99.90;;;;;;5071492;28;20044;-90
2023/12/15 06:19:01;;;;;;;33.55;15.23;;;7.40;99.90;;;;;;5053440;28;20044;-90
2023/12/15 06:21:27;;;;;;;40.08;14.07;;;7.40;99.90;;;;;;5070967;28;20571;-90
2023/12/15 06:23:54;;;;;;;31.73;12.77;;;7.40;99.90;;;;;;5071249;28;20044;-90
2023/12/15 06:26:20;;;;;;;28.05;12.15;;;7.50;99.90;;;;;;5070094;28;20085;-90
2023/12/15 06:28:46;;;;;;;31.65;12.80;;;7.40;99.90;;;;;;5060793;28;20045;-90
2023/12/15 06:31:13;;;;;;;32.95;15.02;;;7.40;99.90;;;;;;5069549;28;20435;-89
2023/12/15 06:33:38;;;;;;;41.85;15.13;;;7.40;99.90;;;;;;5071845;28;20032;-89
2023/12/15 06:36:05;;;;;;;35.83;14.50;;;7.40;99.90;;;;;;5071656;28;20495;-90
2023/12/15 06:38:30;;;;;;;31.90;15.13;;;7.40;99.90;;;;;;5071974;28;20047;-90
2023/12/15 06:40:56;;;;;;;31.63;12.65;;;7.40;99.90;;;;;;5070663;28;20048;-91
2023/12/15 06:43:22;;;;;;;28.25;11.07;;;7.40;99.90;;;;;;5069903;28;20037;-90
2023/12/15 06:45:48;;;;;;;22.65;10.10;;;7.30;99.90;;;;;;5069632;28;20165;-90
2023/12/15 06:48:14;;;;;;;25.02;10.35;;;7.30;99.90;;;;;;5070784;28;20120;-91
2023/12/15 06:50:39;;;;;;;29.58;12.32;;;7.30;99.90;;;;;;5069353;28;20116;-91
2023/12/15 06:53:05;;;;;;;26.00;10.05;;;7.30;99.90;;;;;;5070507;28;20072;-91
2023/12/15 06:55:31;;;;;;;21.27;10.48;;;7.40;99.90;;;;;;5069320;28;20135;-90
2023/12/15 06:57:57;;;;;;;29.88;10.15;;;7.30;99.90;;;;;;5052482;28;20044;-90
2023/12/15 07:00:22;;;;;;;29.58;10.82;;;7.40;99.90;;;;;;5069483;28;20459;-90
2023/12/15 07:02:48;;;;;;;31.27;12.75;;;7.40;99.90;;;;;;5070115;28;20033;-90
2023/12/15 07:05:14;;;;;;;23.00;10.00;;;7.40;99.90;;;;;;5063213;28;20044;-90
2023/12/15 07:07:39;;;;;;;24.55;9.35;;;7.40;99.90;;;;;;5069436;28;20043;-89
2023/12/15 07:10:06;;;;;;;37.78;12.70;;;7.40;99.90;;;;;;5069646;28;20033;-90
2023/12/15 07:12:31;;;;;;;33.47;14.20;;;7.40;99.90;;;;;;5069091;28;20041;-89
2023/12/15 07:14:57;;;;;;;30.33;12.95;;;7.40;99.90;;;;;;5070487;28;20062;-90
2023/12/15 07:17:22;;;;;;;32.65;11.98;;;7.30;99.90;;;;;;5074497;28;20064;-90
2023/12/15 07:19:48;;;;;;;39.10;13.50;;;7.40;99.90;;;;;;5072884;28;20039;-90
2023/12/15 07:22:14;;;;;;;24.05;10.27;;;7.40;99.90;;;;;;5074481;28;20048;-90
2023/12/15 07:24:42;;;;;;;33.65;11.48;;;7.40;99.90;;;;;;5074405;28;20040;-90
2023/12/15 07:27:08;;;;;;;22.27;9.55;;;7.40;99.90;;;;;;5074340;28;20086;-90
2023/12/15 07:29:34;;;;;;;20.40;9.60;;;7.40;99.90;;;;;;5074401;28;20040;-90
2023/12/15 07:31:59;;;;;;;23.90;10.02;;;7.40;99.90;;;;;;5074249;28;20407;-90
2023/12/15 07:34:25;;;;;;;19.55;7.85;;;7.40;99.90;;;;;;5072118;28;20037;-90
2023/12/15 07:36:51;;;;;;;29.98;11.55;;;7.40;99.90;;;;;;5059822;28;20040;-90
2023/12/15 07:39:21;;;;;;;26.45;11.38;;;7.30;99.90;;;;;;5060414;28;20036;-90
2023/12/15 07:41:48;;;;;;;18.90;8.30;;;7.40;99.90;;;;;;5072927;28;20040;-90
2023/12/15 07:44:14;;;;;;;23.13;10.07;;;7.40;99.90;;;;;;5074298;28;20423;-90
2023/12/15 07:46:40;;;;;;;31.05;12.40;;;7.40;99.90;;;;;;5074151;28;20107;-89
2023/12/15 07:49:06;;;;;;;30.77;10.85;;;7.40;99.90;;;;;;5073943;28;20041;-89
2023/12/15 07:51:31;;;;;;;33.17;13.27;;;7.40;99.90;;;;;;5073957;28;20037;-89
2023/12/15 07:53:57;;;;;;;41.65;14.38;;;7.40;99.90;;;;;;5073909;28;20400;-89
2023/12/15 07:56:25;;;;;;;35.65;14.07;;;7.40;99.90;;;;;;5073036;28;20072;-89
2023/12/15 07:58:51;;;;;;;36.05;12.23;;;7.40;99.90;;;;;;5073456;28;20124;-89
2023/12/15 08:01:18;;;;;;;32.83;11.82;;;7.40;99.90;;;;;;5067557;28;20037;-89
2023/12/15 08:03:44;;;;;;;31.70;13.30;;;7.50;99.90;;;;;;5068939;28;20029;-90
2023/12/15 08:06:15;;;;;;;38.95;14.98;;;7.50;99.90;;;;;;5073658;28;20428;-89
2023/12/15 08:08:41;;;;;;;34.65;13.60;;;7.50;99.90;;;;;;5072551;28;20044;-89
2023/12/15 08:11:07;;;;;;;29.10;12.68;;;7.50;99.90;;;;;;5073203;28;20036;-90
2023/12/15 08:13:33;;;;;;;28.55;12.10;;;7.50;99.90;;;;;;5055661;28;20552;-91
2023/12/15 08:15:58;;;;;;;33.28;14.63;;;7.50;99.90;;;;;;5073465;28;20116;-90
2023/12/15 08:18:24;;;;;;;24.42;12.27;;;7.50;99.90;;;;;;5072145;28;20119;-90
2023/12/15 08:20:50;;;;;;;33.53;12.60;;;7.50;99.90;;;;;;5071145;28;20047;-90
2023/12/15 08:23:16;;;;;;;26.80;12.15;;;7.50;99.90;;;;;;5055689;28;20048;-90
2023/12/15 08:25:42;;;;;;;33.65;12.70;;;7.60;99.90;;;;;;5073634;28;20044;-90
2023/12/15 08:28:09;;;;;;;32.70;13.23;;;7.60;99.90;;;;;;5073293;28;20408;-90
2023/12/15 08:30:35;;;;;;;28.90;13.43;;;7.60;99.90;;;;;;5055003;28;20048;-90
2023/12/15 08:33:01;;;;;;;32.45;12.10;;;7.60;99.90;;;;;;5073407;28;20028;-89
2023/12/15 08:35:27;;;;;;;29.50;12.52;;;7.60;99.90;;;;;;5071864;28;20511;-89
2023/12/15 08:37:55;;;;;;;36.40;12.80;;;7.60;99.90;;;;;;5073186;28;20040;-90
2023/12/15 08:40:20;;;;;;;28.15;11.00;;;7.60;99.90;;;;;;5073294;28;20109;-89
2023/12/15 08:42:46;;;;;;;31.13;13.15;;;7.70;99.90;;;;;;5071864;28;20487;-89
2023/12/15 08:45:12;;;;;;;27.00;11.00;;;7.70;99.90;;;;;;5073046;28;20119;-90
2023/12/15 08:47:37;;;;;;;19.70;9.23;;;7.60;99.90;;;;;;5054879;28;20075;-90
2023/12/15 08:50:04;;;;;;;26.08;11.90;;;7.60;99.90;;;;;;5071971;28;20048;-89
2023/12/15 08:52:29;;;;;;;30.73;13.80;;;7.60;99.90;;;;;;5072974;28;20040;-90
2023/12/15 08:54:55;;;;;;;29.00;13.00;;;7.60;99.90;;;;;;5054908;28;20047;-90
2023/12/15 08:57:21;;;;;;;34.38;13.50;;;7.60;99.90;;;;;;5073378;28;20119;-90
2023/12/15 08:59:47;;;;;;;29.60;11.80;;;7.60;99.90;;;;;;5077917;28;20033;-89
2023/12/15 09:02:12;;;;;;;32.40;11.80;;;7.70;99.90;;;;;;5087797;28;20068;-89
2023/12/15 09:04:38;;;;;;;34.17;13.30;;;7.70;99.90;;;;;;5075139;28;20043;-90
2023/12/15 09:07:07;;;;;;;29.67;10.90;;;7.70;99.90;;;;;;5048153;28;20044;-89
2023/12/15 09:09:34;;;;;;;26.27;10.77;;;7.70;99.90;;;;;;5064113;28;20396;-90
2023/12/15 09:12:00;;;;;;;26.27;10.50;;;7.70;99.90;;;;;;5063721;28;20049;-90
2023/12/15 09:14:26;;;;;;;25.70;9.60;;;7.70;99.90;;;;;;5047399;28;20557;-90
2023/12/15 09:16:54;;;;;;;30.23;11.00;;;7.70;99.90;;;;;;5064624;28;20044;-89
2023/12/15 09:19:20;;;;;;;27.85;12.00;;;7.70;99.90;;;;;;5072590;28;20088;-88
2023/12/15 09:21:46;;;;;;;27.75;12.50;;;7.80;99.90;;;;;;5054123;28;20090;-89
2023/12/15 09:24:14;;;;;;;29.95;12.00;;;7.80;99.90;;;;;;5054359;28;20041;-89
2023/12/15 09:26:42;;;;;;;21.38;9.57;;;7.80;99.90;;;;;;5072174;28;20487;-89
2023/12/15 09:29:08;;;;;;;25.15;10.35;;;7.80;99.90;;;;;;5071034;28;20399;-88
2023/12/15 09:31:34;;;;;;;23.65;10.60;;;7.80;99.90;;;;;;5071948;28;20071;-90
2023/12/15 09:34:00;;;;;;;21.02;9.25;;;7.90;99.90;;;;;;5071490;28;20071;-89
2023/12/15 09:36:26;;;;;;;23.20;9.25;;;7.90;99.90;;;;;;5071246;28;20036;-90
2023/12/15 09:38:53;;;;;;;20.38;8.50;;;7.80;99.90;;;;;;5072005;28;20118;-90
2023/12/15 09:41:20;;;;;;;31.02;11.05;;;7.90;99.90;;;;;;5071588;28;20408;-90
2023/12/15 09:43:45;;;;;;;32.25;11.40;;;7.90;99.90;;;;;;5071923;28;20102;-90
2023/12/15 09:46:11;;;;;;;22.23;8.82;;;7.90;99.90;;;;;;5071863;28;20040;-90
2023/12/15 09:48:38;;;;;;;22.08;9.25;;;7.90;99.90;;;;;;5070427;28;20476;-90
2023/12/15 09:51:08;;;;;;;24.55;10.82;;;8.00;99.90;;;;;;5071576;28;20047;-90
2023/12/15 09:53:36;;;;;;;22.52;10.30;;;8.00;99.90;;;;;;5071396;28;20032;-89
2023/12/15 09:56:02;;;;;;;21.65;10.07;;;8.00;99.90;;;;;;5070995;28;20527;-90
2023/12/15 09:58:27;;;;;;;21.50;10.00;;;8.10;99.90;;;;;;5061685;28;20040;-91
2023/12/15 10:00:53;;;;;;;33.42;11.18;;;8.10;99.90;;;;;;5070266;28;20036;-90
2023/12/15 10:03:19;;;;;;;21.30;9.07;;;8.20;99.90;;;;;;5071674;28;20617;-90
2023/12/15 10:05:44;;;;;;;16.20;7.15;;;8.20;99.90;;;;;;5070221;28;20048;-90
2023/12/15 10:08:10;;;;;;;31.90;10.35;;;8.30;99.90;;;;;;5070113;28;20044;-90
2023/12/15 10:10:36;;;;;;;22.80;9.20;;;8.30;99.90;;;;;;5069500;28;20044;-90
2023/12/15 10:13:02;;;;;;;20.42;7.32;;;8.40;99.90;;;;;;5071244;28;20389;-90
2023/12/15 10:15:27;;;;;;;26.27;10.32;;;8.40;99.90;;;;;;5069853;28;20075;-90
2023/12/15 10:17:54;;;;;;;20.08;8.70;;;8.50;99.90;;;;;;5071141;28;20037;-90
2023/12/15 10:20:20;;;;;;;18.08;6.63;;;8.50;99.90;;;;;;5071289;28;20033;-90
2023/12/15 10:22:47;;;;;;;16.02;7.78;;;8.50;99.90;;;;;;5070838;28;20055;-90
2023/12/15 10:25:23;;;;;;;25.05;6.38;;;8.50;99.90;;;;;;5070881;28;20107;-90
2023/12/15 10:27:50;;;;;;;23.80;7.57;;;8.60;99.90;;;;;;5053191;28;20047;-91
2023/12/15 10:30:19;;;;;;;20.38;7.13;;;8.60;99.90;;;;;;5070756;28;20051;-90
2023/12/15 10:32:45;;;;;;;20.75;6.25;;;8.70;99.90;;;;;;5069663;28;20055;-90
2023/12/15 10:35:12;;;;;;;21.70;6.78;;;8.70;99.90;;;;;;5071130;28;20036;-90
2023/12/15 10:37:38;;;;;;;20.08;6.65;;;8.70;99.90;;;;;;5068908;28;20488;-91
2023/12/15 10:40:05;;;;;;;22.10;6.55;;;8.70;99.90;;;;;;5069860;28;20111;-90
2023/12/15 10:42:31;;;;;;;26.65;8.18;;;8.70;99.90;;;;;;5070027;28;20110;-91
2023/12/15 10:45:03;;;;;;;19.55;6.72;;;8.70;99.90;;;;;;5069088;28;20123;-90
2023/12/15 10:47:30;;;;;;;22.02;7.22;;;8.80;99.90;;;;;;5071211;28;20051;-90
2023/12/15 10:49:57;;;;;;;17.60;6.78;;;8.80;99.90;;;;;;5069428;28;20041;-91
2023/12/15 10:52:24;;;;;;;25.00;6.72;;;8.80;99.90;;;;;;5069431;28;20032;-90
2023/12/15 10:54:51;;;;;;;19.13;8.23;;;8.80;99.90;;;;;;5071004;28;20131;-90
2023/12/15 10:57:20;;;;;;;32.60;7.90;;;8.80;99.90;;;;;;5071140;28;20459;-91
2023/12/15 10:59:48;;;;;;;21.98;6.57;;;8.80;99.90;;;;;;5070690;28;20044;-90
2023/12/15 11:02:17;;;;;;;21.00;4.80;;;8.80;99.90;;;;;;5062728;28;20450;-90
2023/12/15 11:04:43;;;;;;;29.98;6.68;;;8.80;99.90;;;;;;5061896;28;20048;-90
2023/12/15 11:07:09;;;;;;;18.70;6.53;;;8.80;99.90;;;;;;5071128;28;20124;-90
2023/12/15 11:09:36;;;;;;;20.80;5.70;;;8.90;99.90;;;;;;5070724;28;20471;-90
2023/12/15 11:12:30;;;;;;;24.23;5.18;;;8.90;99.90;;;;;;5070340;28;20037;-90
2023/12/15 11:14:59;;;;;;;17.40;4.60;;;9.00;99.90;;;;;;5069401;28;20045;-90
2023/12/15 11:17:26;;;;;;;18.58;4.95;;;9.00;99.90;;;;;;5069161;28;20051;-90
2023/12/15 11:19:59;;;;;;;20.02;4.63;;;9.00;99.90;;;;;;5053508;28;20123;-90
2023/12/15 11:22:26;;;;;;;14.27;4.68;;;9.00;99.90;;;;;;5066227;28;20064;-90
2023/12/15 11:24:51;;;;;;;19.48;3.78;;;9.10;99.90;;;;;;5071011;28;20508;-89
2023/12/15 11:27:17;;;;;;;16.00;4.35;;;9.10;99.90;;;;;;5070758;28;20040;-90
2023/12/15 11:29:42;;;;;;;13.77;4.47;;;9.10;99.90;;;;;;5070184;28;20040;-90
2023/12/15 11:32:28;;;;;;;14.15;4.07;;;9.10;99.90;;;;;;5052327;28;20165;-90
2023/12/15 11:34:53;;;;;;;13.05;3.92;;;9.20;99.90;;;;;;5068997;28;20052;-89
2023/12/15 11:37:20;;;;;;;18.33;4.03;;;9.20;99.90;;;;;;5069505;28;20033;-90
2023/12/15 11:39:49;;;;;;;15.00;3.35;;;9.20;99.90;;;;;;5070391;28;20041;-90
2023/12/15 11:42:15;;;;;;;17.40;4.20;;;9.30;99.90;;;;;;5070251;28;20064;-90
2023/12/15 11:44:46;;;;;;;15.52;3.33;;;9.40;99.90;;;;;;5070353;28;20076;-91
2023/12/15 11:47:12;;;;;;;11.70;3.45;;;9.40;99.90;;;;;;5069193;28;20054;-90
2023/12/15 11:49:42;;;;;;;14.52;2.95;;;9.50;99.90;;;;;;5052144;28;20044;-90
2023/12/15 11:52:15;;;;;;;14.43;3.47;;;9.50;99.90;;;;;;5068523;28;20044;-91
2023/12/15 11:54:41;;;;;;;19.75;4.32;;;9.50;99.90;;;;;;5069468;28;20048;-90
2023/12/15 11:57:07;;;;;;;18.25;3.80;;;9.60;99.90;;;;;;5074388;28;20115;-90
2023/12/15 11:59:40;;;;;;;22.08;4.28;;;9.60;99.90;;;;;;5072435;28;20170;-91
2023/12/15 12:02:06;;;;;;;17.27;2.95;;;9.50;99.90;;;;;;5072645;28;20115;-91
2023/12/15 12:04:31;;;;;;;11.02;3.40;;;9.60;99.90;;;;;;5066829;28;20171;-90
2023/12/15 12:06:58;;;;;;;14.07;3.83;;;9.70;99.90;;;;;;5073602;28;20041;-90
2023/12/15 12:09:24;;;;;;;18.33;3.55;;;9.80;99.90;;;;;;5071811;28;20032;-90
2023/12/15 12:11:51;;;;;;;14.20;3.20;;;10.00;99.90;;;;;;5054981;28;20037;-90
2023/12/15 12:14:16;;;;;;;22.48;3.83;;;10.30;99.90;;;;;;5072983;28;20043;-91
2023/12/15 12:16:48;;;;;;;18.23;3.30;;;10.80;99.90;;;;;;5073967;28;20041;-91
2023/12/15 12:19:14;;;;;;;12.40;2.30;;;11.20;99.90;;;;;;5073792;28;20419;-90
2023/12/15 12:21:40;;;;;;;20.05;4.10;;;11.60;99.90;;;;;;5073120;28;20032;-90
2023/12/15 12:24:06;;;;;;;14.45;3.60;;;12.20;99.90;;;;;;5068150;28;20037;-90
2023/12/15 12:26:32;;;;;;;16.73;2.97;;;12.80;99.90;;;;;;5072019;28;20238;-90
2023/12/15 12:28:57;;;;;;;17.42;3.55;;;13.40;99.90;;;;;;5072008;28;20045;-91
2023/12/15 12:31:24;;;;;;;30.05;8.10;;;14.10;99.90;;;;;;5054413;28;20046;-91
2023/12/15 12:33:50;;;;;;;17.92;3.42;;;14.30;99.90;;;;;;5071902;28;20041;-90
2023/12/15 12:36:17;;;;;;;14.02;3.53;;;13.60;99.90;;;;;;5055299;28;20032;-90